General San Martin, Argentina
Current Conditions -  °F | °C
As of 9:00 AM on Saturday 25 Oct 2014 (Local Time) from SAZN Reporting Station
Clear Clear  
Wind Chill: 66°   Ceiling: Unl
Heat Index: 66°   Visibility: 6mi
Dew Point: 46°   Wind: 2mph
Humidity: 49%   Direction: 270°W
Pressure: 29.88"   Gusts: NA
Location:  37.98°S, 63.57°W
Report Text: SAZN 251200Z 27002KT CAVOK 19/08 Q1012
Loading
Personal Weather Stations






























Interactive Weather Map
Tropical Storm Tracking
New forecast layout! Learn more

10-Day Weather Forecast

Advertisements
Track Severe Weather on mobile